createdAt,value
2022-12-19T00:01:28.684Z,69.63
2022-12-19T00:04:35.705Z,67.50
2022-12-19T00:07:39.379Z,69.45
2022-12-19T00:10:43.140Z,63.97
2022-12-19T00:13:46.568Z,71.47
2022-12-19T00:16:49.757Z,76.80
2022-12-19T00:19:53.218Z,75.38
2022-12-19T00:22:57.855Z,74.93
2022-12-19T00:26:12.351Z,69.18
2022-12-19T00:29:18.220Z,70.90
2022-12-19T00:32:21.444Z,72.25
2022-12-19T00:35:25.011Z,72.88
2022-12-19T00:38:29.248Z,71.93
2022-12-19T00:41:34.234Z,73.22
2022-12-19T00:44:37.447Z,69.27
2022-12-19T00:47:40.689Z,71.75
2022-12-19T00:50:43.864Z,70.95
2022-12-19T00:53:48.966Z,71.77
2022-12-19T00:56:52.110Z,67.68
2022-12-19T00:59:55.321Z,66.40
2022-12-19T01:02:58.818Z,71.07
2022-12-19T01:06:02.436Z,62.17
2022-12-19T01:09:06.472Z,67.32
2022-12-19T01:12:30.759Z,70.97
2022-12-19T01:15:34.020Z,73.53
2022-12-19T01:18:40.781Z,73.43
2022-12-19T01:21:44.251Z,68.30
2022-12-19T01:24:47.836Z,67.07
2022-12-19T01:27:55.653Z,71.43
2022-12-19T01:30:58.867Z,63.22
2022-12-19T01:34:02.172Z,59.75
2022-12-19T01:37:05.379Z,64.60
2022-12-19T01:40:10.059Z,56.70
2022-12-19T01:43:15.155Z,63.50
2022-12-19T01:46:21.809Z,57.10
2022-12-19T01:49:35.448Z,56.38
2022-12-19T01:52:38.642Z,58.55
2022-12-19T01:55:44.534Z,62.00
2022-12-19T01:58:56.120Z,56.28
2022-12-19T02:02:17.434Z,50.58
2022-12-19T02:05:20.892Z,53.95
2022-12-19T02:08:24.853Z,60.53
2022-12-19T02:11:28.666Z,49.70
2022-12-19T02:14:35.544Z,55.75
2022-12-19T02:18:08.126Z,58.10
2022-12-19T02:21:30.066Z,45.83
2022-12-19T02:25:03.087Z,55.42
2022-12-19T02:28:37.678Z,43.47
2022-12-19T02:31:58.569Z,50.85
2022-12-19T02:35:33.121Z,49.80
2022-12-19T02:39:01.068Z,42.58
2022-12-19T02:42:07.606Z,53.08
2022-12-19T02:45:20.051Z,45.00
2022-12-19T02:48:32.834Z,45.60
2022-12-19T02:51:36.642Z,50.43
2022-12-19T02:54:42.294Z,46.63
2022-12-19T02:58:16.317Z,42.75
2022-12-19T03:01:31.643Z,46.20
2022-12-19T03:04:55.509Z,44.75
2022-12-19T03:08:14.945Z,46.33
2022-12-19T03:11:18.591Z,44.75
2022-12-19T03:14:25.258Z,55.72
2022-12-19T03:17:37.052Z,51.58
2022-12-19T03:20:57.049Z,55.45
2022-12-19T03:24:01.042Z,48.40
2022-12-19T03:27:22.805Z,47.72
2022-12-19T03:30:26.140Z,47.10
2022-12-19T03:33:32.177Z,46.83
2022-12-19T03:36:44.005Z,53.38
2022-12-19T03:39:52.826Z,48.00
2022-12-19T03:43:12.019Z,49.92
2022-12-19T03:46:25.553Z,53.15
2022-12-19T03:49:28.933Z,52.90
2022-12-19T03:52:50.922Z,46.67
2022-12-19T03:56:30.962Z,50.43
2022-12-19T04:00:00.518Z,52.53
2022-12-19T04:03:05.371Z,50.60
2022-12-19T04:06:10.053Z,49.97
2022-12-19T04:09:17.947Z,52.10
2022-12-19T04:12:30.759Z,49.67
2022-12-19T04:15:46.041Z,51.17
2022-12-19T04:18:55.852Z,56.90
2022-12-19T04:22:09.153Z,49.50
2022-12-19T04:25:16.819Z,53.50
2022-12-19T04:28:40.732Z,51.00
2022-12-19T04:31:45.177Z,57.17
2022-12-19T04:34:48.369Z,53.90
2022-12-19T04:37:52.644Z,53.10
2022-12-19T04:40:56.729Z,50.28
2022-12-19T04:43:59.941Z,54.20
2022-12-19T04:47:03.224Z,57.67
2022-12-19T04:50:06.683Z,53.22
2022-12-19T04:53:10.172Z,55.13
2022-12-19T04:56:14.696Z,54.83
2022-12-19T04:59:17.933Z,52.97
2022-12-19T05:02:21.237Z,53.35
2022-12-19T05:05:24.547Z,56.10
2022-12-19T05:08:28.089Z,51.80
2022-12-19T05:11:31.498Z,47.95
2022-12-19T05:14:34.712Z,48.13
2022-12-19T05:17:38.237Z,51.15
2022-12-19T05:20:41.386Z,52.63
2022-12-19T05:23:44.625Z,51.92
2022-12-19T05:26:49.434Z,57.33
2022-12-19T05:29:53.339Z,51.77
2022-12-19T05:32:56.644Z,52.00
2022-12-19T05:36:00.114Z,48.78
2022-12-19T05:39:03.433Z,50.57
2022-12-19T05:42:12.051Z,54.63
2022-12-19T05:45:15.751Z,54.63
2022-12-19T05:48:18.968Z,47.47
2022-12-19T05:51:22.364Z,46.42
2022-12-19T05:54:25.508Z,56.50
2022-12-19T05:57:28.626Z,53.58
2022-12-19T06:00:34.646Z,50.40
2022-12-19T06:03:38.484Z,50.53
2022-12-19T06:06:41.793Z,54.88
2022-12-19T06:09:45.362Z,53.50
2022-12-19T06:12:48.548Z,53.05
2022-12-19T06:15:56.611Z,50.10
2022-12-19T06:18:59.894Z,54.95
2022-12-19T06:22:03.181Z,53.95
2022-12-19T06:25:07.849Z,61.13
2022-12-19T06:28:11.208Z,50.20
2022-12-19T06:31:18.635Z,48.07
2022-12-19T06:34:54.848Z,51.80
2022-12-19T06:37:48.831Z,52.75
2022-12-19T06:41:20.681Z,60.93
2022-12-19T06:44:24.020Z,48.97
2022-12-19T06:47:27.407Z,65.05
2022-12-19T06:50:30.803Z,55.03
2022-12-19T06:53:34.758Z,48.13
2022-12-19T06:56:40.088Z,49.10
2022-12-19T06:59:43.440Z,57.08
2022-12-19T07:02:51.092Z,54.20
2022-12-19T07:05:54.517Z,56.55
2022-12-19T07:08:57.804Z,59.92
2022-12-19T07:12:01.989Z,53.40
2022-12-19T07:15:06.489Z,55.42
2022-12-19T07:18:10.681Z,54.95
2022-12-19T07:21:14.077Z,58.28
2022-12-19T07:24:22.348Z,56.10
2022-12-19T07:30:56.066Z,55.67
2022-12-19T07:34:28.353Z,51.90
2022-12-19T07:38:07.765Z,48.70
2022-12-19T07:41:26.120Z,50.60
2022-12-19T07:44:29.610Z,52.33
2022-12-19T07:47:32.881Z,52.85
2022-12-19T07:50:36.383Z,58.03
2022-12-19T07:53:39.748Z,47.90
2022-12-19T07:56:59.526Z,48.83
2022-12-19T08:00:03.435Z,57.80
2022-12-19T08:03:16.900Z,54.70
2022-12-19T08:06:24.673Z,55.00
2022-12-19T08:09:32.384Z,48.55
2022-12-19T08:12:40.374Z,48.88
2022-12-19T08:15:46.430Z,50.53
2022-12-19T08:18:49.954Z,44.95
2022-12-19T08:21:53.584Z,48.45
2022-12-19T08:24:57.823Z,54.75
2022-12-19T08:28:03.274Z,55.97
2022-12-19T08:31:14.969Z,47.83
2022-12-19T08:34:18.379Z,49.28
2022-12-19T08:37:21.869Z,56.00
2022-12-19T08:40:25.302Z,50.95
2022-12-19T08:43:30.637Z,50.67
2022-12-19T08:46:33.933Z,48.47
2022-12-19T08:49:39.811Z,48.85
2022-12-19T08:52:48.734Z,48.58
2022-12-19T08:55:59.778Z,49.00
2022-12-19T08:59:03.126Z,45.80
2022-12-19T09:02:06.745Z,49.33
2022-12-19T09:06:03.827Z,52.05
2022-12-19T09:08:40.310Z,53.30
2022-12-19T09:11:48.614Z,48.30
2022-12-19T09:14:51.838Z,49.45
2022-12-19T09:17:55.012Z,47.00
2022-12-19T09:21:00.060Z,54.15
2022-12-19T09:24:10.213Z,44.45
2022-12-19T09:27:16.429Z,50.17
2022-12-19T09:30:22.247Z,45.38
2022-12-19T09:33:26.967Z,54.78
2022-12-19T09:36:30.225Z,47.17
2022-12-19T09:39:35.149Z,51.97
2022-12-19T09:42:59.730Z,48.10
2022-12-19T09:46:20.979Z,45.55
2022-12-19T09:49:42.844Z,47.20
2022-12-19T09:52:54.758Z,42.88
2022-12-19T09:55:59.838Z,45.20
2022-12-19T09:59:12.802Z,45.00
2022-12-19T10:02:42.185Z,45.88
2022-12-19T10:07:12.934Z,39.92
2022-12-19T10:11:16.304Z,48.67
2022-12-19T10:13:13.986Z,45.90
2022-12-19T10:17:08.597Z,45.00
2022-12-19T10:20:18.217Z,42.35
2022-12-19T10:23:58.771Z,51.70
2022-12-19T10:27:24.980Z,48.28
2022-12-19T10:30:32.488Z,42.55
2022-12-19T10:33:51.247Z,48.30
2022-12-19T10:37:26.672Z,42.55
2022-12-19T10:40:57.087Z,47.00
2022-12-19T10:44:07.371Z,41.60
2022-12-19T10:47:16.174Z,44.17
2022-12-19T10:50:25.869Z,44.20
2022-12-19T10:53:30.214Z,40.85
2022-12-19T10:56:37.756Z,47.10
2022-12-19T10:59:53.703Z,43.50
2022-12-19T11:03:26.259Z,43.88
2022-12-19T11:06:35.441Z,45.58
2022-12-19T11:09:50.610Z,52.10
2022-12-19T11:17:01.992Z,41.15
2022-12-19T11:22:27.452Z,48.70
2022-12-19T11:29:30.940Z,42.27
2022-12-19T11:29:40.717Z,45.33
2022-12-19T11:30:44.493Z,46.78
2022-12-19T11:34:36.593Z,40.53
2022-12-19T11:37:55.082Z,41.72
2022-12-19T11:41:04.167Z,44.00
2022-12-19T11:44:44.501Z,47.22
2022-12-19T11:48:15.239Z,39.97
2022-12-19T11:51:48.065Z,47.20
2022-12-19T11:55:06.116Z,44.30
2022-12-19T11:58:13.107Z,48.42
2022-12-19T12:01:22.025Z,39.92
2022-12-19T12:04:38.030Z,41.93
2022-12-19T12:08:08.152Z,46.70
2022-12-19T12:17:50.555Z,45.58
2022-12-19T12:25:17.442Z,44.58
2022-12-19T12:31:16.209Z,48.30
2022-12-19T12:31:32.146Z,46.00
2022-12-19T12:31:40.357Z,40.08
2022-12-19T12:31:50.266Z,43.33
2022-12-19T12:35:52.366Z,42.58
2022-12-19T12:38:13.698Z,43.30
2022-12-19T12:40:59.800Z,41.83
2022-12-19T12:44:09.499Z,45.97
2022-12-19T12:47:25.713Z,44.53
2022-12-19T12:50:31.676Z,50.50
2022-12-19T12:53:38.544Z,45.03
2022-12-19T12:56:42.597Z,53.22
2022-12-19T12:59:47.350Z,53.75
2022-12-19T13:03:14.550Z,53.40
2022-12-19T13:06:34.171Z,54.45
2022-12-19T13:09:37.955Z,43.72
2022-12-19T13:13:18.583Z,42.70
2022-12-19T13:16:43.260Z,44.42
2022-12-19T13:19:55.879Z,47.42
2022-12-19T13:22:59.266Z,40.42
2022-12-19T13:26:04.717Z,45.38
2022-12-19T13:29:28.181Z,46.28
2022-12-19T13:32:54.156Z,44.67
2022-12-19T13:39:50.420Z,43.70
2022-12-19T13:39:59.206Z,53.70
2022-12-19T13:43:25.627Z,45.60
2022-12-19T13:46:44.356Z,47.40
2022-12-19T13:49:47.944Z,47.72
2022-12-19T13:52:52.297Z,54.85
2022-12-19T13:56:11.561Z,45.97
2022-12-19T13:59:15.458Z,48.72
2022-12-19T14:02:29.020Z,47.67
2022-12-19T14:06:15.827Z,48.45
2022-12-19T14:09:25.179Z,47.17
2022-12-19T14:13:54.094Z,55.72
2022-12-19T14:16:39.738Z,60.67
2022-12-19T14:19:50.550Z,59.53
2022-12-19T14:23:00.559Z,59.22
2022-12-19T14:28:19.655Z,62.80
2022-12-19T14:30:28.970Z,63.35
2022-12-19T14:33:44.377Z,65.45
2022-12-19T14:36:58.588Z,64.68
2022-12-19T14:40:20.967Z,74.03
2022-12-19T14:43:58.960Z,72.67
2022-12-19T14:54:12.349Z,77.63
2022-12-19T14:54:17.437Z,74.95
2022-12-19T14:57:25.626Z,70.28
2022-12-19T15:01:10.067Z,71.68
2022-12-19T15:04:52.515Z,72.60
2022-12-19T15:07:48.129Z,70.07
2022-12-19T15:11:13.847Z,72.38
2022-12-19T15:14:53.786Z,71.53
2022-12-19T15:17:55.904Z,72.87
2022-12-19T15:21:04.948Z,79.50
2022-12-19T15:24:08.640Z,71.60
2022-12-19T15:27:18.731Z,62.50
2022-12-19T15:30:23.127Z,63.88
2022-12-19T15:33:26.402Z,71.13
2022-12-19T15:36:29.677Z,82.75
2022-12-19T15:39:33.050Z,77.32
2022-12-19T15:42:36.379Z,75.30
2022-12-19T15:45:40.685Z,82.03
2022-12-19T15:48:48.499Z,76.17
2022-12-19T15:51:54.574Z,79.18
2022-12-19T15:54:57.911Z,80.93
2022-12-19T15:58:05.358Z,78.47
2022-12-19T16:01:08.774Z,75.05
2022-12-19T16:04:15.651Z,80.95
2022-12-19T16:07:21.837Z,81.28
2022-12-19T16:10:26.404Z,78.35
2022-12-19T16:13:35.516Z,69.00
2022-12-19T16:16:39.104Z,74.32
2022-12-19T16:19:42.549Z,72.00
2022-12-19T16:22:45.764Z,66.45
2022-12-19T16:25:52.264Z,65.60
2022-12-19T16:28:55.752Z,70.50
2022-12-19T16:32:00.947Z,66.45
2022-12-19T16:35:12.535Z,58.97
2022-12-19T16:38:16.596Z,57.28
2022-12-19T16:41:25.469Z,65.40
2022-12-19T16:44:32.912Z,55.00
2022-12-19T16:47:36.201Z,63.47
2022-12-19T16:50:39.514Z,67.23
2022-12-19T16:53:42.766Z,56.70
2022-12-19T16:56:50.560Z,61.40
2022-12-19T16:59:54.541Z,58.47
2022-12-19T17:03:17.103Z,55.42
2022-12-19T17:06:22.496Z,56.15
2022-12-19T17:09:26.238Z,61.10
2022-12-19T17:12:29.670Z,53.72
2022-12-19T17:15:36.749Z,57.70
2022-12-19T17:18:42.698Z,64.40
2022-12-19T17:21:45.994Z,57.83
2022-12-19T17:24:49.885Z,55.05
2022-12-19T17:27:54.427Z,60.67
2022-12-19T17:31:02.310Z,57.90
2022-12-19T17:34:12.215Z,55.60
2022-12-19T17:37:17.470Z,57.85
2022-12-19T17:40:23.563Z,58.75
2022-12-19T17:43:26.853Z,52.83
2022-12-19T17:46:31.723Z,54.60
2022-12-19T17:49:35.010Z,57.08
2022-12-19T17:52:38.291Z,51.23
2022-12-19T17:55:41.978Z,53.80
2022-12-19T17:58:45.733Z,56.75
2022-12-19T18:01:49.654Z,55.37
2022-12-19T18:04:53.548Z,55.53
2022-12-19T18:07:56.858Z,56.55
2022-12-19T18:11:02.306Z,60.10
2022-12-19T18:14:05.927Z,59.35
2022-12-19T18:17:12.916Z,51.80
2022-12-19T18:20:31.588Z,54.08
2022-12-19T18:23:35.576Z,54.47
2022-12-19T18:26:38.815Z,55.35
2022-12-19T18:29:42.041Z,55.85
2022-12-19T18:32:51.597Z,60.17
2022-12-19T18:35:55.111Z,50.28
2022-12-19T18:38:59.091Z,53.65
2022-12-19T18:42:02.505Z,55.53
2022-12-19T18:45:06.212Z,57.50
2022-12-19T18:48:20.985Z,55.38
2022-12-19T18:51:24.277Z,50.90
2022-12-19T18:54:28.479Z,47.97
2022-12-19T18:57:31.735Z,59.25
2022-12-19T19:00:37.716Z,50.67
2022-12-19T19:03:43.887Z,52.00
2022-12-19T19:06:52.329Z,51.58
2022-12-19T19:09:56.054Z,53.05
2022-12-19T19:13:25.842Z,50.90
2022-12-19T19:16:29.176Z,54.47
2022-12-19T19:19:32.480Z,54.10
2022-12-19T19:22:36.331Z,51.40
2022-12-19T19:25:39.953Z,54.93
2022-12-19T19:28:47.034Z,49.83
2022-12-19T19:31:54.497Z,50.10
2022-12-19T19:34:57.782Z,50.27
2022-12-19T19:38:06.804Z,51.65
2022-12-19T19:41:10.141Z,50.95
2022-12-19T19:44:13.320Z,46.72
2022-12-19T19:47:16.582Z,48.50
2022-12-19T19:50:20.279Z,48.60
2022-12-19T19:53:23.887Z,46.95
2022-12-19T19:56:27.071Z,43.10
2022-12-19T19:59:31.799Z,50.30
2022-12-19T20:02:35.306Z,50.30
2022-12-19T20:05:38.690Z,49.33
2022-12-19T20:08:41.894Z,50.05
2022-12-19T20:11:45.245Z,45.90
2022-12-19T20:14:48.507Z,50.30
2022-12-19T20:17:52.982Z,51.67
2022-12-19T20:20:56.523Z,44.40
2022-12-19T20:24:00.029Z,47.40
2022-12-19T20:27:03.310Z,46.73
2022-12-19T20:30:07.645Z,51.70
2022-12-19T20:33:11.814Z,47.53
2022-12-19T20:36:15.420Z,43.47
2022-12-19T20:39:25.695Z,46.58
2022-12-19T20:42:29.071Z,43.65
2022-12-19T20:45:32.408Z,49.30
2022-12-19T20:48:35.897Z,43.03
2022-12-19T20:51:39.521Z,48.28
2022-12-19T20:54:42.651Z,46.28
2022-12-19T20:57:46.031Z,46.10
2022-12-19T21:00:50.506Z,52.60
2022-12-19T21:03:54.074Z,44.28
2022-12-19T21:06:57.755Z,45.90
2022-12-19T21:10:00.990Z,44.20
2022-12-19T21:13:04.326Z,49.50
2022-12-19T21:16:11.015Z,50.35
2022-12-19T21:19:14.302Z,45.70
2022-12-19T21:22:19.179Z,46.30
2022-12-19T21:25:22.532Z,46.70
2022-12-19T21:28:26.074Z,43.57
2022-12-19T21:31:31.099Z,44.72
2022-12-19T21:34:34.914Z,47.92
2022-12-19T21:37:43.314Z,44.50
2022-12-19T21:40:47.066Z,41.70
2022-12-19T21:43:53.693Z,42.80
2022-12-19T21:46:57.084Z,41.28
2022-12-19T21:50:00.377Z,37.08
2022-12-19T21:53:03.781Z,38.75
2022-12-19T21:56:25.030Z,34.80
2022-12-19T21:59:28.343Z,38.00
2022-12-19T22:02:31.621Z,37.05
2022-12-19T22:05:35.154Z,39.65
2022-12-19T22:08:38.438Z,31.37
2022-12-19T22:11:43.227Z,33.53
2022-12-19T22:14:46.486Z,37.38
2022-12-19T22:17:49.857Z,29.70
2022-12-19T22:20:58.816Z,31.25
2022-12-19T22:24:03.435Z,29.05
2022-12-19T22:27:06.707Z,31.60
2022-12-19T22:30:11.300Z,30.67
2022-12-19T22:33:14.770Z,33.20
2022-12-19T22:36:23.961Z,29.05
2022-12-19T22:39:30.735Z,35.00
2022-12-19T22:42:33.935Z,29.58
2022-12-19T22:45:37.146Z,28.65
2022-12-19T22:48:41.436Z,31.95
2022-12-19T22:51:45.091Z,31.67
2022-12-19T22:54:48.275Z,28.50
2022-12-19T22:57:51.674Z,29.05
2022-12-19T23:00:54.833Z,30.90
2022-12-19T23:04:00.950Z,29.00
2022-12-19T23:07:04.318Z,26.80
2022-12-19T23:10:09.120Z,23.37
2022-12-19T23:13:12.475Z,24.85
2022-12-19T23:16:19.002Z,23.15
2022-12-19T23:19:22.348Z,21.02
2022-12-19T23:22:28.187Z,25.23
2022-12-19T23:25:31.630Z,23.83
2022-12-19T23:28:35.343Z,26.42
2022-12-19T23:31:44.929Z,20.20
2022-12-19T23:34:48.242Z,21.52
2022-12-19T23:37:51.404Z,23.55
2022-12-19T23:41:00.494Z,24.67
2022-12-19T23:44:04.353Z,23.77
2022-12-19T23:47:07.568Z,23.45
2022-12-19T23:50:11.155Z,24.88
2022-12-19T23:53:14.398Z,24.60
2022-12-19T23:56:20.062Z,21.98
2022-12-19T23:59:23.251Z,22.67
